Romoe Maersk — OXLC2 — position and weather

sailwx.info

Track history (hours):
 
Tides and Currents Weather Stations Pressure Air Temp Water Temp Dewpoint Dewpoint Depression Visibility Wind Speed Wind Dir Waves Ship Positions

Romoe Maersk

Last reported at 2015-May-04 21:11 UTC. Time now 2015-May-05 14:15 UTC.
Position N 53°49' E 001°44'.

Length 171 m; draft 7.4 m.

Type: Ship. MMSI: 220209000.

Date/timePositionNaut miles runAvg speedWind from/ knotsBaromVisibWave heightAir tempDewpointWater temp
2015-May-04 21:11N 53°49' E 001°44'33 8.5
2015-May-04 17:15N 53°45' E 000°48'6 8.3
2015-May-04 16:28N 53°44' E 000°37'8 8.7
2015-May-04 15:34N 53°44' E 000°24'1 0.8
2015-May-04 14:18N 53°44' E 000°22'0 0.2
2015-May-04 13:33N 53°45' E 000°22'0 0.1
2015-May-04 12:33N 53°45' E 000°22'0 0.0
2015-May-04 11:30N 53°45' E 000°22'0 0.0
2015-May-04 10:33N 53°45' E 000°22'0 0.0
2015-May-04 09:30N 53°45' E 000°22'0 0.0
2015-May-04 08:30N 53°45' E 000°22'0 0.1
2015-May-04 07:27N 53°45' E 000°22'0 0.1
2015-May-04 06:27N 53°45' E 000°22'0 0.1
2015-May-04 05:21N 53°44' E 000°22'0 0.1
2015-May-04 04:21N 53°44' E 000°22'0 0.0
2015-May-04 03:09N 53°44' E 000°22'0 0.0
2015-May-04 02:27N 53°44' E 000°22'0 0.2
2015-May-04 01:33N 53°45' E 000°22'0 0.1
2015-May-04 00:30N 53°45' E 000°22'0 0.0
2015-May-03 23:33N 53°45' E 000°22'0 0.0
2015-May-03 22:33N 53°45' E 000°22'0 0.0
2015-May-03 21:33N 53°45' E 000°22'0 0.0
2015-May-03 20:33N 53°45' E 000°22'0 0.0
2015-May-03 19:33N 53°45' E 000°22'0 0.2
2015-May-03 18:21N 53°44' E 000°22'0 0.2
2015-May-03 17:33N 53°44' E 000°22'0 0.0
2015-May-03 16:33N 53°44' E 000°22'0 0.0
2015-May-03 15:33N 53°44' E 000°22'0 0.0
2015-May-03 14:33N 53°44' E 000°22'0 0.1
2015-May-03 13:33N 53°45' E 000°22'0 0.1
2015-May-03 12:32N 53°45' E 000°22'0 0.0
2015-May-03 11:32N 53°45' E 000°22'0 0.0
2015-May-03 10:23N 53°45' E 000°22'0 0.0
2015-May-03 09:26N 53°45' E 000°22'0 0.0
2015-May-03 08:26N 53°45' E 000°22'0 0.0
2015-May-03 07:20N 53°45' E 000°22'0 0.0
2015-May-03 06:29N 53°45' E 000°22'0 0.1
2015-May-03 05:26N 53°45' E 000°22'0 0.0
2015-May-03 04:29N 53°44' E 000°22'0 0.0
2015-May-03 03:29N 53°44' E 000°22'2 2.2
2015-May-03 02:33N 53°42' E 000°22'9 9.0
2015-May-03 01:33N 53°34' E 000°17'7 6.8
2015-May-03 00:33N 53°35' E 000°05'10 9.8
2015-May-02 23:33N 53°38' W 000°10'0 0.0
2015-May-02 22:31N 53°38' W 000°10'0 0.0
2015-May-02 21:31N 53°38' W 000°10'0 0.0
2015-May-02 20:31N 53°38' W 000°10'0 0.0
2015-May-02 19:33N 53°38' W 000°10'0 0.0
2015-May-02 18:34N 53°38' W 000°10'0 0.0
2015-May-02 17:33N 53°38' W 000°10'0 0.0
2015-May-02 16:33N 53°38' W 000°10'0 0.0
2015-May-02 15:30N 53°38' W 000°10'0 0.0
2015-May-02 14:30N 53°38' W 000°10'0 0.0
2015-May-02 13:33N 53°38' W 000°10'0 0.0
2015-May-02 12:33N 53°38' W 000°10'0 0.0
2015-May-02 11:33N 53°38' W 000°10'0 0.0
2015-May-02 10:30N 53°38' W 000°10'0 0.0
2015-May-02 09:33N 53°38' W 000°10'0 0.0
2015-May-02 08:33N 53°38' W 000°10'0 0.0
2015-May-02 07:33N 53°38' W 000°10'0 0.0
2015-May-02 06:33N 53°38' W 000°10'0 0.0
2015-May-02 05:33N 53°38' W 000°10'0 0.0
2015-May-02 04:33N 53°38' W 000°10'0 0.0
2015-May-02 03:33N 53°38' W 000°10'0 0.0
2015-May-02 02:33N 53°38' W 000°10'0 0.0
2015-May-02 01:33N 53°38' W 000°10'0 0.0
2015-May-02 00:33N 53°38' W 000°10'0 0.0
2015-May-01 23:33N 53°38' W 000°10'0 0.0
2015-May-01 22:33N 53°38' W 000°10'0 0.0
2015-May-01 21:33N 53°38' W 000°10'0 0.0
2015-May-01 20:33N 53°38' W 000°10'0 0.0
2015-May-01 19:33N 53°38' W 000°10'0 0.0
2015-May-01 18:30N 53°38' W 000°10'0 0.0
2015-May-01 17:33N 53°38' W 000°10'0 0.0
2015-May-01 16:33N 53°38' W 000°10'0 0.0
2015-May-01 15:33N 53°38' W 000°10'0 0.0
2015-May-01 14:30N 53°38' W 000°10'0 0.0
2015-May-01 13:33N 53°38' W 000°10'0 0.0
2015-May-01 12:30N 53°38' W 000°10'0 0.0
2015-May-01 11:33N 53°38' W 000°10'0 0.0
2015-May-01 10:33N 53°38' W 000°10'0 0.0
2015-May-01 09:33N 53°38' W 000°10'0 0.0
2015-May-01 08:33N 53°38' W 000°10'0 0.0
2015-May-01 07:33N 53°38' W 000°10'0 0.0
2015-May-01 06:33N 53°38' W 000°10'0 0.0
2015-May-01 05:33N 53°38' W 000°10'0 0.0
2015-May-01 04:33N 53°38' W 000°10'3 2.9
2015-May-01 03:34N 53°37' W 000°05'9 8.9
2015-May-01 02:33N 53°33' E 000°08'9 9.2
2015-May-01 01:34N 53°38' E 000°21'3 3.1
2015-May-01 00:33N 53°41' E 000°23'3 2.9
2015-Apr-30 23:27N 53°45' E 000°23'0 0.0
2015-Apr-30 22:30N 53°45' E 000°23'0 0.3
2015-Apr-30 21:34N 53°45' E 000°23'0 0.0
2015-Apr-30 20:33N 53°45' E 000°23'0 0.1
2015-Apr-30 19:33N 53°45' E 000°23'0 0.2
2015-Apr-30 18:33N 53°45' E 000°23'0 0.1
2015-Apr-30 17:33N 53°45' E 000°23'0 0.0
2015-Apr-30 16:33N 53°45' E 000°23'0 0.0
2015-Apr-30 15:33N 53°45' E 000°23'0 0.0
2015-Apr-30 14:30N 53°45' E 000°23'0 0.0
2015-Apr-30 13:33N 53°45' E 000°23'0 0.0
2015-Apr-30 12:21N 53°45' E 000°23'0 0.0
2015-Apr-30 11:18N 53°45' E 000°23'0 0.1
2015-Apr-30 10:24N 53°45' E 000°23'0 0.1
2015-Apr-30 09:21N 53°45' E 000°23'0 0.0
2015-Apr-30 08:12N 53°45' E 000°23'0 0.0
2015-Apr-30 07:21N 53°45' E 000°23'0 0.0
2015-Apr-30 06:21N 53°45' E 000°23'0 0.0
2015-Apr-30 05:12N 53°45' E 000°23'0 0.1
2015-Apr-30 04:24N 53°45' E 000°23'0 0.1
2015-Apr-30 03:26N 53°45' E 000°23'0 0.1
2015-Apr-30 02:29N 53°45' E 000°23'0 0.0
2015-Apr-30 01:26N 53°45' E 000°23'0 0.0
2015-Apr-30 00:26N 53°45' E 000°23'0 0.1
2015-Apr-29 23:29N 53°45' E 000°23'0 0.1
2015-Apr-29 22:32N 53°45' E 000°23'0 0.1
2015-Apr-29 21:32N 53°45' E 000°23'0 0.0
2015-Apr-29 20:29N 53°45' E 000°23'0 0.0
2015-Apr-29 19:29N 53°45' E 000°23'0 0.0
2015-Apr-29 18:29N 53°45' E 000°23'0 0.1
2015-Apr-29 17:29N 53°45' E 000°23'0 0.1
2015-Apr-29 16:32N 53°45' E 000°23'0 0.1
2015-Apr-29 15:32N 53°45' E 000°23'0 0.0
2015-Apr-29 14:17N 53°45' E 000°23'0 0.0
2015-Apr-29 12:33N 53°45' E 000°23'0 0.0
2015-Apr-29 11:32N 53°45' E 000°23'0 0.2
2015-Apr-29 10:23N 53°45' E 000°23'0 0.1
2015-Apr-29 09:20N 53°45' E 000°23'0 0.0
2015-Apr-29 08:29N 53°45' E 000°23'0 0.0
2015-Apr-29 07:20N 53°45' E 000°23'0 0.0
2015-Apr-29 06:26N 53°45' E 000°23'0 0.0
2015-Apr-29 05:26N 53°45' E 000°23'0 0.0
2015-Apr-29 04:26N 53°45' E 000°23'0 0.1
2015-Apr-29 03:26N 53°45' E 000°23'0 0.1
2015-Apr-29 02:23N 53°45' E 000°23'0 0.0
2015-Apr-29 00:14N 53°45' E 000°23'0 0.0
2015-Apr-28 23:29N 53°45' E 000°23'0 0.0
2015-Apr-28 22:29N 53°45' E 000°23'0 0.2
2015-Apr-28 21:32N 53°45' E 000°23'0 0.0
2015-Apr-28 20:20N 53°45' E 000°23'0 0.0
2015-Apr-28 19:32N 53°45' E 000°23'0 0.0
2015-Apr-28 18:32N 53°45' E 000°23'0 0.1
2015-Apr-28 17:20N 53°45' E 000°23'0 0.1
2015-Apr-28 16:32N 53°45' E 000°23'0 0.1
2015-Apr-28 15:23N 53°45' E 000°23'0 0.0
2015-Apr-28 14:32N 53°45' E 000°23'0 0.0
2015-Apr-28 13:32N 53°45' E 000°23'0 0.0
2015-Apr-28 12:23N 53°45' E 000°23'0 0.0
2015-Apr-28 11:22N 53°45' E 000°23'0 0.0
2015-Apr-28 10:25N 53°45' E 000°23'0 0.1
2015-Apr-28 09:25N 53°45' E 000°23'0 0.1
2015-Apr-28 07:25N 53°45' E 000°23'0 0.0
2015-Apr-28 06:22N 53°45' E 000°23'0 0.0
2015-Apr-28 05:28N 53°45' E 000°23'0 0.0
2015-Apr-28 04:25N 53°45' E 000°23'0 0.0
2015-Apr-28 03:25N 53°45' E 000°23'0 0.1
2015-Apr-28 02:28N 53°45' E 000°23'0 0.1
2015-Apr-28 01:31N 53°45' E 000°23'0 0.0
2015-Apr-28 00:28N 53°45' E 000°23'0 0.0
2015-Apr-27 22:31N 53°45' E 000°23'0 0.2
2015-Apr-27 21:28N 53°45' E 000°23'0 0.0
2015-Apr-27 20:32N 53°45' E 000°23'0 0.0
2015-Apr-27 19:28N 53°45' E 000°23'0 0.0
2015-Apr-27 18:31N 53°45' E 000°23'0 0.0
2015-Apr-27 17:31N 53°45' E 000°23'0 0.0
2015-Apr-27 16:22N 53°45' E 000°23'0 0.1
2015-Apr-27 15:31N 53°45' E 000°23'0 0.1
2015-Apr-27 14:19N 53°45' E 000°23'0 0.1
2015-Apr-27 13:22N 53°45' E 000°23'0 0.0
2015-Apr-27 12:25N 53°45' E 000°23'0 0.0
2015-Apr-27 11:25N 53°45' E 000°23'0 0.0
2015-Apr-27 10:19N 53°45' E 000°23'0 0.0
2015-Apr-27 09:25N 53°45' E 000°23'0 0.0
2015-Apr-27 08:25N 53°45' E 000°23'0 0.0
2015-Apr-27 07:28N 53°45' E 000°23'0 0.0
2015-Apr-27 06:28N 53°45' E 000°23'0 0.1
2015-Apr-27 05:28N 53°45' E 000°23'0 0.0
2015-Apr-27 04:28N 53°45' E 000°23'0 0.0
2015-Apr-27 03:28N 53°45' E 000°23'0 0.0
2015-Apr-27 02:31N 53°45' E 000°23'0 0.0
2015-Apr-27 01:13N 53°45' E 000°23'0 0.0
2015-Apr-27 00:31N 53°45' E 000°23'0 0.0
2015-Apr-26 23:19N 53°45' E 000°23'0 0.0
2015-Apr-26 22:28N 53°45' E 000°23'0 0.0
2015-Apr-26 21:31N 53°45' E 000°23'0 0.0
2015-Apr-26 19:34N 53°45' E 000°23'0 0.1
2015-Apr-26 18:30N 53°45' E 000°23'0 0.1
2015-Apr-26 17:33N 53°45' E 000°23'0 0.0
2015-Apr-26 16:33N 53°45' E 000°23'0 0.0
2015-Apr-26 15:34N 53°45' E 000°23'0 0.1
2015-Apr-26 14:33N 53°45' E 000°23'0 0.2
2015-Apr-26 13:33N 53°45' E 000°23'0 0.0
2015-Apr-26 12:24N 53°45' E 000°23'0 0.0
2015-Apr-26 11:24N 53°45' E 000°23'0 0.0
2015-Apr-26 10:24N 53°45' E 000°23'0 0.0
2015-Apr-26 09:24N 53°45' E 000°23'0 0.0
2015-Apr-26 08:12N 53°45' E 000°23'0 0.0
2015-Apr-26 07:27N 53°45' E 000°23'0 0.0
2015-Apr-26 06:12N 53°45' E 000°23'0 0.2
2015-Apr-26 05:30N 53°45' E 000°23'0 0.0
2015-Apr-26 04:33N 53°45' E 000°23'0 0.0
2015-Apr-26 03:30N 53°45' E 000°23'0 0.0
2015-Apr-26 02:33N 53°45' E 000°23'0 0.2
2015-Apr-26 01:30N 53°45' E 000°23'0 0.1
2015-Apr-26 00:30N 53°45' E 000°23'0 0.0
2015-Apr-25 23:27N 53°45' E 000°23'0 0.0
2015-Apr-25 22:18N 53°45' E 000°23'0 0.0
2015-Apr-25 21:33N 53°45' E 000°23'0 0.0
2015-Apr-25 20:33N 53°45' E 000°23'0 0.0
2015-Apr-25 19:33N 53°45' E 000°23'0 0.0
2015-Apr-25 18:30N 53°45' E 000°23'0 0.0
2015-Apr-25 17:34N 53°45' E 000°23'0 0.1
2015-Apr-25 16:23N 53°45' E 000°23'4 4.8
2015-Apr-25 15:34N 53°47' E 000°29'1111.4
2015-Apr-25 14:34N 53°51' E 000°46'  
Track history (hours):
 
Tides and Currents Weather Stations Pressure Air Temp Water Temp Dewpoint Dewpoint Depression Visibility Wind Speed Wind Dir Waves Ship Positions

Romoe Maersk

Last reported at 2015-May-04 21:11 UTC. Time now 2015-May-05 14:15 UTC.
Position N 53°49' E 001°44'.

Length 171 m; draft 7.4 m.

Type: Ship. MMSI: 220209000.

Date/timePositionNaut miles runAvg speedWind from/ knotsBaromVisibWave heightAir tempDewpointWater temp
2015-May-04 21:11N 53°49' E 001°44'33 8.5
2015-May-04 17:15N 53°45' E 000°48'6 8.3
2015-May-04 16:28N 53°44' E 000°37'8 8.7
2015-May-04 15:34N 53°44' E 000°24'1 0.8
2015-May-04 14:18N 53°44' E 000°22'0 0.2
2015-May-04 13:33N 53°45' E 000°22'0 0.1
2015-May-04 12:33N 53°45' E 000°22'0 0.0
2015-May-04 11:30N 53°45' E 000°22'0 0.0
2015-May-04 10:33N 53°45' E 000°22'0 0.0
2015-May-04 09:30N 53°45' E 000°22'0 0.0
2015-May-04 08:30N 53°45' E 000°22'0 0.1
2015-May-04 07:27N 53°45' E 000°22'0 0.1
2015-May-04 06:27N 53°45' E 000°22'0 0.1
2015-May-04 05:21N 53°44' E 000°22'0 0.1
2015-May-04 04:21N 53°44' E 000°22'0 0.0
2015-May-04 03:09N 53°44' E 000°22'0 0.0
2015-May-04 02:27N 53°44' E 000°22'0 0.2
2015-May-04 01:33N 53°45' E 000°22'0 0.1
2015-May-04 00:30N 53°45' E 000°22'0 0.0
2015-May-03 23:33N 53°45' E 000°22'0 0.0
2015-May-03 22:33N 53°45' E 000°22'0 0.0
2015-May-03 21:33N 53°45' E 000°22'0 0.0
2015-May-03 20:33N 53°45' E 000°22'0 0.0
2015-May-03 19:33N 53°45' E 000°22'0 0.2
2015-May-03 18:21N 53°44' E 000°22'0 0.2
2015-May-03 17:33N 53°44' E 000°22'0 0.0
2015-May-03 16:33N 53°44' E 000°22'0 0.0
2015-May-03 15:33N 53°44' E 000°22'0 0.0
2015-May-03 14:33N 53°44' E 000°22'0 0.1
2015-May-03 13:33N 53°45' E 000°22'0 0.1
2015-May-03 12:32N 53°45' E 000°22'0 0.0
2015-May-03 11:32N 53°45' E 000°22'0 0.0
2015-May-03 10:23N 53°45' E 000°22'0 0.0
2015-May-03 09:26N 53°45' E 000°22'0 0.0
2015-May-03 08:26N 53°45' E 000°22'0 0.0
2015-May-03 07:20N 53°45' E 000°22'0 0.0
2015-May-03 06:29N 53°45' E 000°22'0 0.1
2015-May-03 05:26N 53°45' E 000°22'0 0.0
2015-May-03 04:29N 53°44' E 000°22'0 0.0
2015-May-03 03:29N 53°44' E 000°22'2 2.2
2015-May-03 02:33N 53°42' E 000°22'9 9.0
2015-May-03 01:33N 53°34' E 000°17'7 6.8
2015-May-03 00:33N 53°35' E 000°05'10 9.8
2015-May-02 23:33N 53°38' W 000°10'0 0.0
2015-May-02 22:31N 53°38' W 000°10'0 0.0
2015-May-02 21:31N 53°38' W 000°10'0 0.0
2015-May-02 20:31N 53°38' W 000°10'0 0.0
2015-May-02 19:33N 53°38' W 000°10'0 0.0
2015-May-02 18:34N 53°38' W 000°10'0 0.0
2015-May-02 17:33N 53°38' W 000°10'0 0.0
2015-May-02 16:33N 53°38' W 000°10'0 0.0
2015-May-02 15:30N 53°38' W 000°10'0 0.0
2015-May-02 14:30N 53°38' W 000°10'0 0.0
2015-May-02 13:33N 53°38' W 000°10'0 0.0
2015-May-02 12:33N 53°38' W 000°10'0 0.0
2015-May-02 11:33N 53°38' W 000°10'0 0.0
2015-May-02 10:30N 53°38' W 000°10'0 0.0
2015-May-02 09:33N 53°38' W 000°10'0 0.0
2015-May-02 08:33N 53°38' W 000°10'0 0.0
2015-May-02 07:33N 53°38' W 000°10'0 0.0
2015-May-02 06:33N 53°38' W 000°10'0 0.0
2015-May-02 05:33N 53°38' W 000°10'0 0.0
2015-May-02 04:33N 53°38' W 000°10'0 0.0
2015-May-02 03:33N 53°38' W 000°10'0 0.0
2015-May-02 02:33N 53°38' W 000°10'0 0.0
2015-May-02 01:33N 53°38' W 000°10'0 0.0
2015-May-02 00:33N 53°38' W 000°10'0 0.0
2015-May-01 23:33N 53°38' W 000°10'0 0.0
2015-May-01 22:33N 53°38' W 000°10'0 0.0
2015-May-01 21:33N 53°38' W 000°10'0 0.0
2015-May-01 20:33N 53°38' W 000°10'0 0.0
2015-May-01 19:33N 53°38' W 000°10'0 0.0
2015-May-01 18:30N 53°38' W 000°10'0 0.0
2015-May-01 17:33N 53°38' W 000°10'0 0.0
2015-May-01 16:33N 53°38' W 000°10'0 0.0
2015-May-01 15:33N 53°38' W 000°10'0 0.0
2015-May-01 14:30N 53°38' W 000°10'0 0.0
2015-May-01 13:33N 53°38' W 000°10'0 0.0
2015-May-01 12:30N 53°38' W 000°10'0 0.0
2015-May-01 11:33N 53°38' W 000°10'0 0.0
2015-May-01 10:33N 53°38' W 000°10'0 0.0
2015-May-01 09:33N 53°38' W 000°10'0 0.0
2015-May-01 08:33N 53°38' W 000°10'0 0.0
2015-May-01 07:33N 53°38' W 000°10'0 0.0
2015-May-01 06:33N 53°38' W 000°10'0 0.0
2015-May-01 05:33N 53°38' W 000°10'0 0.0
2015-May-01 04:33N 53°38' W 000°10'3 2.9
2015-May-01 03:34N 53°37' W 000°05'9 8.9
2015-May-01 02:33N 53°33' E 000°08'9 9.2
2015-May-01 01:34N 53°38' E 000°21'3 3.1
2015-May-01 00:33N 53°41' E 000°23'3 2.9
2015-Apr-30 23:27N 53°45' E 000°23'0 0.0
2015-Apr-30 22:30N 53°45' E 000°23'0 0.3
2015-Apr-30 21:34N 53°45' E 000°23'0 0.0
2015-Apr-30 20:33N 53°45' E 000°23'0 0.1
2015-Apr-30 19:33N 53°45' E 000°23'0 0.2
2015-Apr-30 18:33N 53°45' E 000°23'0 0.1
2015-Apr-30 17:33N 53°45' E 000°23'0 0.0
2015-Apr-30 16:33N 53°45' E 000°23'0 0.0
2015-Apr-30 15:33N 53°45' E 000°23'0 0.0
2015-Apr-30 14:30N 53°45' E 000°23'0 0.0
2015-Apr-30 13:33N 53°45' E 000°23'0 0.0
2015-Apr-30 12:21N 53°45' E 000°23'0 0.0
2015-Apr-30 11:18N 53°45' E 000°23'0 0.1
2015-Apr-30 10:24N 53°45' E 000°23'0 0.1
2015-Apr-30 09:21N 53°45' E 000°23'0 0.0
2015-Apr-30 08:12N 53°45' E 000°23'0 0.0
2015-Apr-30 07:21N 53°45' E 000°23'0 0.0
2015-Apr-30 06:21N 53°45' E 000°23'0 0.0
2015-Apr-30 05:12N 53°45' E 000°23'0 0.1
2015-Apr-30 04:24N 53°45' E 000°23'0 0.1
2015-Apr-30 03:26N 53°45' E 000°23'0 0.1
2015-Apr-30 02:29N 53°45' E 000°23'0 0.0
2015-Apr-30 01:26N 53°45' E 000°23'0 0.0
2015-Apr-30 00:26N 53°45' E 000°23'0 0.1
2015-Apr-29 23:29N 53°45' E 000°23'0 0.1
2015-Apr-29 22:32N 53°45' E 000°23'0 0.1
2015-Apr-29 21:32N 53°45' E 000°23'0 0.0
2015-Apr-29 20:29N 53°45' E 000°23'0 0.0
2015-Apr-29 19:29N 53°45' E 000°23'0 0.0
2015-Apr-29 18:29N 53°45' E 000°23'0 0.1
2015-Apr-29 17:29N 53°45' E 000°23'0 0.1
2015-Apr-29 16:32N 53°45' E 000°23'0 0.1
2015-Apr-29 15:32N 53°45' E 000°23'0 0.0
2015-Apr-29 14:17N 53°45' E 000°23'0 0.0
2015-Apr-29 12:33N 53°45' E 000°23'0 0.0
2015-Apr-29 11:32N 53°45' E 000°23'0 0.2
2015-Apr-29 10:23N 53°45' E 000°23'0 0.1
2015-Apr-29 09:20N 53°45' E 000°23'0 0.0
2015-Apr-29 08:29N 53°45' E 000°23'0 0.0
2015-Apr-29 07:20N 53°45' E 000°23'0 0.0
2015-Apr-29 06:26N 53°45' E 000°23'0 0.0
2015-Apr-29 05:26N 53°45' E 000°23'0 0.0
2015-Apr-29 04:26N 53°45' E 000°23'0 0.1
2015-Apr-29 03:26N 53°45' E 000°23'0 0.1
2015-Apr-29 02:23N 53°45' E 000°23'0 0.0
2015-Apr-29 00:14N 53°45' E 000°23'0 0.0
2015-Apr-28 23:29N 53°45' E 000°23'0 0.0
2015-Apr-28 22:29N 53°45' E 000°23'0 0.2
2015-Apr-28 21:32N 53°45' E 000°23'0 0.0
2015-Apr-28 20:20N 53°45' E 000°23'0 0.0
2015-Apr-28 19:32N 53°45' E 000°23'0 0.0
2015-Apr-28 18:32N 53°45' E 000°23'0 0.1
2015-Apr-28 17:20N 53°45' E 000°23'0 0.1
2015-Apr-28 16:32N 53°45' E 000°23'0 0.1
2015-Apr-28 15:23N 53°45' E 000°23'0 0.0
2015-Apr-28 14:32N 53°45' E 000°23'0 0.0
2015-Apr-28 13:32N 53°45' E 000°23'0 0.0
2015-Apr-28 12:23N 53°45' E 000°23'0 0.0
2015-Apr-28 11:22N 53°45' E 000°23'0 0.0
2015-Apr-28 10:25N 53°45' E 000°23'0 0.1
2015-Apr-28 09:25N 53°45' E 000°23'0 0.1
2015-Apr-28 07:25N 53°45' E 000°23'0 0.0
2015-Apr-28 06:22N 53°45' E 000°23'0 0.0
2015-Apr-28 05:28N 53°45' E 000°23'0 0.0
2015-Apr-28 04:25N 53°45' E 000°23'0 0.0
2015-Apr-28 03:25N 53°45' E 000°23'0 0.1
2015-Apr-28 02:28N 53°45' E 000°23'0 0.1
2015-Apr-28 01:31N 53°45' E 000°23'0 0.0
2015-Apr-28 00:28N 53°45' E 000°23'0 0.0
2015-Apr-27 22:31N 53°45' E 000°23'0 0.2
2015-Apr-27 21:28N 53°45' E 000°23'0 0.0
2015-Apr-27 20:32N 53°45' E 000°23'0 0.0
2015-Apr-27 19:28N 53°45' E 000°23'0 0.0
2015-Apr-27 18:31N 53°45' E 000°23'0 0.0
2015-Apr-27 17:31N 53°45' E 000°23'0 0.0
2015-Apr-27 16:22N 53°45' E 000°23'0 0.1
2015-Apr-27 15:31N 53°45' E 000°23'0 0.1
2015-Apr-27 14:19N 53°45' E 000°23'0 0.1
2015-Apr-27 13:22N 53°45' E 000°23'0 0.0
2015-Apr-27 12:25N 53°45' E 000°23'0 0.0
2015-Apr-27 11:25N 53°45' E 000°23'0 0.0
2015-Apr-27 10:19N 53°45' E 000°23'0 0.0
2015-Apr-27 09:25N 53°45' E 000°23'0 0.0
2015-Apr-27 08:25N 53°45' E 000°23'0 0.0
2015-Apr-27 07:28N 53°45' E 000°23'0 0.0
2015-Apr-27 06:28N 53°45' E 000°23'0 0.1
2015-Apr-27 05:28N 53°45' E 000°23'0 0.0
2015-Apr-27 04:28N 53°45' E 000°23'0 0.0
2015-Apr-27 03:28N 53°45' E 000°23'0 0.0
2015-Apr-27 02:31N 53°45' E 000°23'0 0.0
2015-Apr-27 01:13N 53°45' E 000°23'0 0.0
2015-Apr-27 00:31N 53°45' E 000°23'0 0.0
2015-Apr-26 23:19N 53°45' E 000°23'0 0.0
2015-Apr-26 22:28N 53°45' E 000°23'0 0.0
2015-Apr-26 21:31N 53°45' E 000°23'0 0.0
2015-Apr-26 19:34N 53°45' E 000°23'0 0.1
2015-Apr-26 18:30N 53°45' E 000°23'0 0.1
2015-Apr-26 17:33N 53°45' E 000°23'0 0.0
2015-Apr-26 16:33N 53°45' E 000°23'0 0.0
2015-Apr-26 15:34N 53°45' E 000°23'0 0.1
2015-Apr-26 14:33N 53°45' E 000°23'0 0.2
2015-Apr-26 13:33N 53°45' E 000°23'0 0.0
2015-Apr-26 12:24N 53°45' E 000°23'0 0.0
2015-Apr-26 11:24N 53°45' E 000°23'0 0.0
2015-Apr-26 10:24N 53°45' E 000°23'0 0.0
2015-Apr-26 09:24N 53°45' E 000°23'0 0.0
2015-Apr-26 08:12N 53°45' E 000°23'0 0.0
2015-Apr-26 07:27N 53°45' E 000°23'0 0.0
2015-Apr-26 06:12N 53°45' E 000°23'0 0.2
2015-Apr-26 05:30N 53°45' E 000°23'0 0.0
2015-Apr-26 04:33N 53°45' E 000°23'0 0.0
2015-Apr-26 03:30N 53°45' E 000°23'0 0.0
2015-Apr-26 02:33N 53°45' E 000°23'0 0.2
2015-Apr-26 01:30N 53°45' E 000°23'0 0.1
2015-Apr-26 00:30N 53°45' E 000°23'0 0.0
2015-Apr-25 23:27N 53°45' E 000°23'0 0.0
2015-Apr-25 22:18N 53°45' E 000°23'0 0.0
2015-Apr-25 21:33N 53°45' E 000°23'0 0.0
2015-Apr-25 20:33N 53°45' E 000°23'0 0.0
2015-Apr-25 19:33N 53°45' E 000°23'0 0.0
2015-Apr-25 18:30N 53°45' E 000°23'0 0.0
2015-Apr-25 17:34N 53°45' E 000°23'0 0.1
2015-Apr-25 16:23N 53°45' E 000°23'4 4.8
2015-Apr-25 15:34N 53°47' E 000°29'1111.4
2015-Apr-25 14:34N 53°51' E 000°46'  

Dump ship's entire track history